createdAt,value
2023-04-18T00:00:06.934Z,5.47
2023-04-18T00:03:15.856Z,6.00
2023-04-18T00:06:19.349Z,6.25
2023-04-18T00:09:21.645Z,5.90
2023-04-18T00:12:23.911Z,5.57
2023-04-18T00:15:26.167Z,5.72
2023-04-18T00:18:28.491Z,6.22
2023-04-18T00:21:31.901Z,6.43
2023-04-18T00:24:34.151Z,7.05
2023-04-18T00:27:37.682Z,5.33
2023-04-18T00:30:40.004Z,5.88
2023-04-18T00:33:42.336Z,5.68
2023-04-18T00:36:44.593Z,5.20
2023-04-18T00:39:46.851Z,5.95
2023-04-18T00:42:49.091Z,5.77
2023-04-18T00:45:51.424Z,5.93
2023-04-18T00:48:53.675Z,5.93
2023-04-18T00:51:56.033Z,5.53
2023-04-18T00:54:58.726Z,5.55
2023-04-18T00:58:00.941Z,5.33
2023-04-18T01:01:03.265Z,5.05
2023-04-18T01:04:06.893Z,5.55
2023-04-18T01:07:09.423Z,4.82
2023-04-18T01:10:11.678Z,5.55
2023-04-18T01:13:14.652Z,5.20
2023-04-18T01:16:16.902Z,4.72
2023-04-18T01:19:19.255Z,5.10
2023-04-18T01:22:21.602Z,4.70
2023-04-18T01:25:23.884Z,4.75
2023-04-18T01:28:27.765Z,5.57
2023-04-18T01:31:34.669Z,5.30
2023-04-18T01:34:36.984Z,4.97
2023-04-18T01:37:41.531Z,5.07
2023-04-18T01:40:43.867Z,5.78
2023-04-18T01:43:46.235Z,5.40
2023-04-18T01:46:48.529Z,6.55
2023-04-18T01:49:50.847Z,5.65
2023-04-18T01:52:53.111Z,5.13
2023-04-18T01:55:55.440Z,5.30
2023-04-18T01:58:57.756Z,5.40
2023-04-18T02:02:00.107Z,5.35
2023-04-18T02:05:02.550Z,5.07
2023-04-18T02:08:05.447Z,4.85
2023-04-18T02:11:07.705Z,5.40
2023-04-18T02:14:10.535Z,5.33
2023-04-18T02:17:12.783Z,4.57
2023-04-18T02:20:15.779Z,5.40
2023-04-18T02:23:18.366Z,4.65
2023-04-18T02:26:20.685Z,5.65
2023-04-18T02:29:23.534Z,5.13
2023-04-18T02:32:26.027Z,5.45
2023-04-18T02:35:28.871Z,5.90
2023-04-18T02:38:31.843Z,6.32
2023-04-18T02:41:37.533Z,6.95
2023-04-18T02:44:39.762Z,6.77
2023-04-18T02:47:53.844Z,7.07
2023-04-18T02:51:03.467Z,7.50
2023-04-18T02:54:06.933Z,7.35
2023-04-18T02:57:24.020Z,7.15
2023-04-18T03:00:37.729Z,7.70
2023-04-18T03:03:45.886Z,7.60
2023-04-18T03:07:09.031Z,7.90
2023-04-18T03:10:14.150Z,7.60
2023-04-18T03:13:17.048Z,7.75
2023-04-18T03:16:19.640Z,7.77
2023-04-18T03:19:21.979Z,7.65
2023-04-18T03:22:25.895Z,7.72
2023-04-18T03:25:31.403Z,7.30
2023-04-18T03:28:34.378Z,7.75
2023-04-18T03:31:36.816Z,7.53
2023-04-18T03:34:39.115Z,7.22
2023-04-18T03:37:43.372Z,7.18
2023-04-18T03:40:46.351Z,7.13
2023-04-18T03:43:56.738Z,7.53
2023-04-18T03:46:58.993Z,6.83
2023-04-18T03:50:02.358Z,7.47
2023-04-18T03:53:05.659Z,6.50
2023-04-18T03:56:11.278Z,6.65
2023-04-18T03:59:26.199Z,7.22
2023-04-18T04:02:28.646Z,6.23
2023-04-18T04:05:30.958Z,6.78
2023-04-18T04:08:33.442Z,6.60
2023-04-18T04:11:36.088Z,6.82
2023-04-18T04:14:39.498Z,6.90
2023-04-18T04:17:41.897Z,6.70
2023-04-18T04:20:45.833Z,7.20
2023-04-18T04:23:53.098Z,7.20
2023-04-18T04:27:05.200Z,6.95
2023-04-18T04:30:13.205Z,7.53
2023-04-18T04:33:16.508Z,5.70
2023-04-18T04:36:19.537Z,5.47
2023-04-18T04:39:24.499Z,5.88
2023-04-18T04:42:56.189Z,6.25
2023-04-18T04:46:05.520Z,6.38
2023-04-18T04:49:08.064Z,6.97
2023-04-18T04:52:10.588Z,6.95
2023-04-18T04:55:12.905Z,6.53
2023-04-18T04:58:16.555Z,6.68
2023-04-18T05:01:34.664Z,6.97
2023-04-18T05:04:37.093Z,7.53
2023-04-18T05:07:39.421Z,6.78
2023-04-18T05:10:43.173Z,6.55
2023-04-18T05:13:45.427Z,5.97
2023-04-18T05:16:47.757Z,6.80
2023-04-18T05:19:50.028Z,6.60
2023-04-18T05:22:52.377Z,6.57
2023-04-18T05:25:54.622Z,6.38
2023-04-18T05:28:56.843Z,6.85
2023-04-18T05:31:59.101Z,6.57
2023-04-18T05:35:01.366Z,7.23
2023-04-18T05:38:03.592Z,7.95
2023-04-18T05:41:07.253Z,8.65
2023-04-18T05:44:09.548Z,7.32
2023-04-18T05:47:11.818Z,7.50
2023-04-18T05:50:14.177Z,8.20
2023-04-18T05:53:16.377Z,6.22
2023-04-18T05:56:18.639Z,7.20
2023-04-18T05:59:20.982Z,6.35
2023-04-18T06:02:23.390Z,7.20
2023-04-18T06:05:26.287Z,6.40
2023-04-18T06:08:28.799Z,5.55
2023-04-18T06:11:35.761Z,5.50
2023-04-18T06:14:38.138Z,6.03
2023-04-18T06:17:40.458Z,5.25
2023-04-18T06:20:44.020Z,5.97
2023-04-18T06:23:47.557Z,6.03
2023-04-18T06:26:49.869Z,4.80
2023-04-18T06:29:52.094Z,5.53
2023-04-18T06:32:54.358Z,5.18
2023-04-18T06:35:56.853Z,5.10
2023-04-18T06:38:59.108Z,5.53
2023-04-18T06:42:02.516Z,4.60
2023-04-18T06:45:06.480Z,4.70
2023-04-18T06:48:10.701Z,5.18
2023-04-18T06:51:13.164Z,5.10
2023-04-18T06:54:15.561Z,4.55
2023-04-18T06:57:17.906Z,4.57
2023-04-18T07:00:20.447Z,4.72
2023-04-18T07:03:22.948Z,4.55
2023-04-18T07:06:26.223Z,4.70
2023-04-18T07:09:28.548Z,4.40
2023-04-18T07:12:30.847Z,5.03
2023-04-18T07:15:34.855Z,4.43
2023-04-18T07:18:38.366Z,4.50
2023-04-18T07:21:42.980Z,4.23
2023-04-18T07:24:45.324Z,4.80
2023-04-18T07:27:47.995Z,4.40
2023-04-18T07:30:50.333Z,4.55
2023-04-18T07:33:52.658Z,3.70
2023-04-18T07:36:54.921Z,4.27
2023-04-18T07:39:57.243Z,4.20
2023-04-18T07:42:59.503Z,4.38
2023-04-18T07:46:01.915Z,4.38
2023-04-18T07:49:04.748Z,4.22
2023-04-18T07:52:07.112Z,4.20
2023-04-18T07:55:09.600Z,4.20
2023-04-18T07:58:11.935Z,3.97
2023-04-18T08:01:15.577Z,4.72
2023-04-18T08:04:18.003Z,3.95
2023-04-18T08:07:20.415Z,3.83
2023-04-18T08:10:23.822Z,4.13
2023-04-18T08:13:26.220Z,4.20
2023-04-18T08:16:28.725Z,4.15
2023-04-18T08:19:30.968Z,4.07
2023-04-18T08:22:33.443Z,3.70
2023-04-18T08:25:36.558Z,3.88
2023-04-18T08:28:38.957Z,4.20
2023-04-18T08:31:41.249Z,4.30
2023-04-18T08:34:43.519Z,4.40
2023-04-18T08:37:45.769Z,4.40
2023-04-18T08:40:48.024Z,4.22
2023-04-18T08:43:50.317Z,3.45
2023-04-18T08:46:53.004Z,4.03
2023-04-18T08:49:55.530Z,4.13
2023-04-18T08:52:59.167Z,3.50
2023-04-18T08:56:01.612Z,3.20
2023-04-18T08:59:04.050Z,3.47
2023-04-18T09:02:08.767Z,3.53
2023-04-18T09:05:16.351Z,3.50
2023-04-18T09:08:24.018Z,2.90
2023-04-18T09:11:28.927Z,3.80
2023-04-18T09:14:32.607Z,3.50
2023-04-18T09:17:53.453Z,3.35
2023-04-18T09:20:56.963Z,3.15
2023-04-18T09:24:34.335Z,3.67
2023-04-18T09:27:36.567Z,3.72
2023-04-18T09:30:40.531Z,3.83
2023-04-18T09:33:52.819Z,3.70
2023-04-18T09:37:11.645Z,3.67
2023-04-18T09:40:20.374Z,4.13
2023-04-18T09:43:22.668Z,3.90
2023-04-18T09:46:25.366Z,4.40
2023-04-18T09:49:27.748Z,5.10
2023-04-18T09:52:35.331Z,11.55
2023-04-18T09:55:37.581Z,5.10
2023-04-18T09:58:41.226Z,7.18
2023-04-18T10:01:48.636Z,9.55
2023-04-18T10:04:51.701Z,9.13
2023-04-18T10:07:54.538Z,10.80
2023-04-18T10:10:58.654Z,8.80
2023-04-18T10:14:06.955Z,8.10
2023-04-18T10:17:10.083Z,6.53
2023-04-18T10:20:17.414Z,5.00
2023-04-18T10:23:32.130Z,3.97
2023-04-18T10:26:47.158Z,4.60
2023-04-18T10:29:53.190Z,3.97
2023-04-18T10:32:55.491Z,3.10
2023-04-18T10:36:07.678Z,3.15
2023-04-18T10:39:22.932Z,2.85
2023-04-18T10:42:46.674Z,2.10
2023-04-18T10:46:20.424Z,2.08
2023-04-18T11:05:23.071Z,2.23
2023-04-18T11:08:25.523Z,2.05
2023-04-18T11:11:27.862Z,2.35
2023-04-18T11:14:40.702Z,2.50
2023-04-18T11:17:43.377Z,3.20
2023-04-18T11:20:50.062Z,3.43
2023-04-18T11:23:52.320Z,2.25
2023-04-18T11:26:55.891Z,2.90
2023-04-18T11:29:58.491Z,2.90
2023-04-18T11:33:05.271Z,2.70
2023-04-18T11:36:08.029Z,2.73
2023-04-18T11:39:10.583Z,2.95
2023-04-18T11:42:12.876Z,2.58
2023-04-18T11:45:15.322Z,2.72
2023-04-18T11:48:17.588Z,2.30
2023-04-18T11:51:35.954Z,1.30
2023-04-18T11:54:44.800Z,1.70
2023-04-18T11:58:06.822Z,2.00
2023-04-18T12:01:19.207Z,2.40
2023-04-18T12:04:21.939Z,3.05
2023-04-18T12:07:37.713Z,2.63
2023-04-18T12:10:53.042Z,2.65
2023-04-18T12:13:56.636Z,2.70
2023-04-18T12:16:58.912Z,3.30
2023-04-18T12:20:02.307Z,5.03
2023-04-18T12:23:04.734Z,4.30
2023-04-18T12:26:07.919Z,4.00
2023-04-18T12:29:10.148Z,3.30
2023-04-18T12:32:12.459Z,2.30
2023-04-18T12:35:15.469Z,3.35
2023-04-18T12:38:19.987Z,3.83
2023-04-18T12:41:22.196Z,3.28
2023-04-18T12:44:24.841Z,11.10
2023-04-18T12:47:27.105Z,3.90
2023-04-18T12:50:29.408Z,4.80
2023-04-18T12:53:31.704Z,3.80
2023-04-18T12:56:33.965Z,3.92
2023-04-18T12:59:36.216Z,3.10
2023-04-18T13:02:42.599Z,3.65
2023-04-18T13:05:44.937Z,7.00
2023-04-18T13:08:47.972Z,4.10
2023-04-18T13:11:50.530Z,4.07
2023-04-18T13:14:52.839Z,4.80
2023-04-18T13:17:56.429Z,5.70
2023-04-18T13:20:58.853Z,4.82
2023-04-18T13:24:01.207Z,3.40
2023-04-18T13:27:10.223Z,5.55
2023-04-18T13:30:12.795Z,3.42
2023-04-18T13:33:15.468Z,3.22
2023-04-18T13:36:18.012Z,2.40
2023-04-18T13:39:20.976Z,2.13
2023-04-18T13:42:23.215Z,2.33
2023-04-18T13:45:25.577Z,1.80
2023-04-18T13:48:27.915Z,2.85
2023-04-18T13:51:31.097Z,1.88
2023-04-18T13:54:33.392Z,1.87
2023-04-18T13:57:37.390Z,1.75
2023-04-18T14:00:39.755Z,2.15
2023-04-18T14:03:43.693Z,3.00
2023-04-18T14:06:47.910Z,3.25
2023-04-18T14:09:53.343Z,2.63
2023-04-18T14:12:56.218Z,3.70
2023-04-18T14:15:58.723Z,6.03
2023-04-18T14:19:01.696Z,5.45
2023-04-18T14:22:03.908Z,3.92
2023-04-18T14:25:06.760Z,3.50
2023-04-18T14:28:11.050Z,7.57
2023-04-18T14:31:14.188Z,4.93
2023-04-18T14:34:16.535Z,4.88
2023-04-18T14:37:18.760Z,7.28
2023-04-18T14:40:22.122Z,7.10
2023-04-18T14:43:24.573Z,4.70
2023-04-18T14:46:28.337Z,3.60
2023-04-18T14:49:30.721Z,4.45
2023-04-18T14:52:32.965Z,6.40
2023-04-18T14:55:35.194Z,5.20
2023-04-18T14:58:37.466Z,3.50
2023-04-18T15:01:41.520Z,3.38
2023-04-18T15:04:44.002Z,5.60
2023-04-18T15:07:47.001Z,5.72
2023-04-18T15:10:49.264Z,5.07
2023-04-18T15:13:51.586Z,4.65
2023-04-18T15:16:53.940Z,9.15
2023-04-18T15:19:56.340Z,18.92
2023-04-18T15:22:58.579Z,6.75
2023-04-18T15:26:01.028Z,11.73
2023-04-18T15:29:03.909Z,15.23
2023-04-18T15:32:06.569Z,12.27
2023-04-18T15:35:11.993Z,9.88
2023-04-18T15:38:14.211Z,10.98
2023-04-18T15:41:16.479Z,6.60
2023-04-18T15:44:18.705Z,7.10
2023-04-18T15:47:21.205Z,8.10
2023-04-18T15:50:23.676Z,7.43
2023-04-18T15:53:25.926Z,8.85
2023-04-18T15:56:28.210Z,7.93
2023-04-18T15:59:30.952Z,7.30
2023-04-18T16:02:33.210Z,6.72
2023-04-18T16:05:35.680Z,6.45
2023-04-18T16:08:37.981Z,7.10
2023-04-18T16:11:40.234Z,8.30
2023-04-18T16:14:42.498Z,7.88
2023-04-18T16:17:44.771Z,10.07
2023-04-18T16:20:47.178Z,10.40
2023-04-18T16:23:49.494Z,11.50
2023-04-18T16:26:53.137Z,12.00
2023-04-18T16:29:55.802Z,12.43
2023-04-18T16:32:58.219Z,11.93
2023-04-18T16:36:02.554Z,10.80
2023-04-18T16:39:04.791Z,10.93
2023-04-18T16:42:07.012Z,9.73
2023-04-18T16:45:09.436Z,8.98
2023-04-18T16:48:11.755Z,8.63
2023-04-18T16:51:13.989Z,7.45
2023-04-18T16:54:16.476Z,7.43
2023-04-18T16:57:18.854Z,7.87
2023-04-18T17:00:21.216Z,8.27
2023-04-18T17:03:23.622Z,8.32
2023-04-18T17:06:27.289Z,8.45
2023-04-18T17:09:30.272Z,8.68
2023-04-18T17:12:32.603Z,8.77
2023-04-18T17:15:36.044Z,9.90
2023-04-18T17:18:38.312Z,11.32
2023-04-18T17:21:40.658Z,13.68
2023-04-18T17:24:42.922Z,12.88
2023-04-18T17:27:45.263Z,12.10
2023-04-18T17:30:47.524Z,13.35
2023-04-18T17:33:50.816Z,15.10
2023-04-18T17:36:53.062Z,16.45
2023-04-18T17:39:57.163Z,15.52
2023-04-18T17:42:59.384Z,15.20
2023-04-18T17:46:03.615Z,12.18
2023-04-18T17:49:06.101Z,11.15
2023-04-18T17:52:08.390Z,10.02
2023-04-18T17:55:10.649Z,12.63
2023-04-18T17:58:12.942Z,13.03
2023-04-18T18:01:18.928Z,11.70
2023-04-18T18:04:24.905Z,12.27
2023-04-18T18:07:28.694Z,10.60
2023-04-18T18:10:31.711Z,11.90
2023-04-18T18:13:34.195Z,9.20
2023-04-18T18:16:38.451Z,8.50
2023-04-18T18:19:40.723Z,8.60
2023-04-18T18:22:43.331Z,7.88
2023-04-18T18:25:45.565Z,8.55
2023-04-18T18:28:47.819Z,11.07
2023-04-18T18:31:50.336Z,11.90
2023-04-18T18:34:52.950Z,24.10
2023-04-18T18:37:55.178Z,15.40
2023-04-18T18:40:57.462Z,8.55
2023-04-18T18:43:59.691Z,6.93
2023-04-18T18:47:02.059Z,6.15
2023-04-18T18:50:04.526Z,6.50
2023-04-18T18:53:06.808Z,6.22
2023-04-18T18:56:09.125Z,6.38
2023-04-18T18:59:11.614Z,5.43
2023-04-18T19:02:13.987Z,6.07
2023-04-18T19:05:17.425Z,6.05
2023-04-18T19:08:19.915Z,6.93
2023-04-18T19:11:22.179Z,28.05
2023-04-18T19:14:24.438Z,21.50
2023-04-18T19:17:26.949Z,16.98
2023-04-18T19:20:29.368Z,16.67
2023-04-18T19:23:31.642Z,15.90
2023-04-18T19:26:33.918Z,12.82
2023-04-18T19:29:36.301Z,8.70
2023-04-18T19:32:38.608Z,9.32
2023-04-18T19:35:41.398Z,10.30
2023-04-18T19:38:43.673Z,12.70
2023-04-18T19:41:46.131Z,10.13
2023-04-18T19:44:48.431Z,9.87
2023-04-18T19:47:50.829Z,9.02
2023-04-18T19:50:53.201Z,7.82
2023-04-18T19:53:55.701Z,8.20
2023-04-18T19:56:58.735Z,7.90
2023-04-18T20:00:01.408Z,7.40
2023-04-18T20:03:03.967Z,7.45
2023-04-18T20:06:06.742Z,7.28
2023-04-18T20:09:15.372Z,7.20
2023-04-18T20:12:17.833Z,7.25
2023-04-18T20:15:20.082Z,7.33
2023-04-18T20:18:24.020Z,7.05
2023-04-18T20:21:26.650Z,7.75
2023-04-18T20:24:31.693Z,7.40
2023-04-18T20:27:33.997Z,7.18
2023-04-18T20:30:36.923Z,6.73
2023-04-18T20:33:39.172Z,6.43
2023-04-18T20:36:41.674Z,7.05
2023-04-18T20:39:44.006Z,6.55
2023-04-18T20:42:46.857Z,6.32
2023-04-18T20:45:51.531Z,6.33
2023-04-18T20:48:53.874Z,6.38
2023-04-18T20:51:56.199Z,6.15
2023-04-18T20:54:58.454Z,6.57
2023-04-18T20:58:00.708Z,6.22
2023-04-18T21:01:03.017Z,6.57
2023-04-18T21:04:05.435Z,6.10
2023-04-18T21:07:07.783Z,6.53
2023-04-18T21:10:10.234Z,7.00
2023-04-18T21:13:12.681Z,6.53
2023-04-18T21:16:15.085Z,6.00
2023-04-18T21:19:17.429Z,6.07
2023-04-18T21:22:19.806Z,6.47
2023-04-18T21:25:22.080Z,6.20
2023-04-18T21:28:24.329Z,6.07
2023-04-18T21:31:27.138Z,5.60
2023-04-18T21:34:29.450Z,5.18
2023-04-18T21:37:31.958Z,5.03
2023-04-18T21:40:34.165Z,5.20
2023-04-18T21:43:36.476Z,5.10
2023-04-18T21:46:38.734Z,4.43
2023-04-18T21:49:41.802Z,4.57
2023-04-18T21:52:44.077Z,4.90
2023-04-18T21:55:46.783Z,3.85
2023-04-18T21:58:49.246Z,3.85
2023-04-18T22:01:51.509Z,3.60
2023-04-18T22:04:53.785Z,4.03
2023-04-18T22:07:58.507Z,3.70
2023-04-18T22:11:01.098Z,3.92
2023-04-18T22:14:03.360Z,3.92
2023-04-18T22:17:05.685Z,3.10
2023-04-18T22:20:08.468Z,3.40
2023-04-18T22:23:11.047Z,3.42
2023-04-18T22:26:13.372Z,3.92
2023-04-18T22:29:15.640Z,3.47
2023-04-18T22:32:18.083Z,3.63
2023-04-18T22:35:20.406Z,3.70
2023-04-18T22:38:22.652Z,3.03
2023-04-18T22:41:24.909Z,3.10
2023-04-18T22:44:27.122Z,3.20
2023-04-18T22:47:29.387Z,2.80
2023-04-18T22:50:31.650Z,2.88
2023-04-18T22:53:33.839Z,3.00
2023-04-18T22:56:36.047Z,3.40
2023-04-18T22:59:38.279Z,3.33
2023-04-18T23:02:40.819Z,3.10
2023-04-18T23:05:43.129Z,2.80
2023-04-18T23:08:45.473Z,3.53
2023-04-18T23:11:47.761Z,2.72
2023-04-18T23:14:49.979Z,2.88
2023-04-18T23:17:53.156Z,2.70
2023-04-18T23:20:55.519Z,2.60
2023-04-18T23:23:57.987Z,2.95
2023-04-18T23:27:01.528Z,2.67
2023-04-18T23:30:04.056Z,3.15
2023-04-18T23:33:06.643Z,2.90
2023-04-18T23:36:09.199Z,2.60
2023-04-18T23:39:11.875Z,2.92
2023-04-18T23:42:14.184Z,2.53
2023-04-18T23:45:16.566Z,2.88
2023-04-18T23:48:18.790Z,2.93
2023-04-18T23:51:21.050Z,2.47
2023-04-18T23:54:23.355Z,2.75
2023-04-18T23:57:25.597Z,2.78
